createdAt,value
2018-08-20T00:04:32.129Z,17.04
2018-08-20T00:10:27.098Z,16.63
2018-08-20T00:16:22.098Z,16.37
2018-08-20T00:22:17.091Z,14.98
2018-08-20T00:28:12.093Z,14.71
2018-08-20T00:34:07.151Z,18.71
2018-08-20T00:40:02.152Z,14.92
2018-08-20T00:45:57.191Z,19.25
2018-08-20T00:51:52.130Z,17.03
2018-08-20T00:57:47.110Z,15.96
2018-08-20T01:03:42.143Z,17.89
2018-08-20T01:09:37.140Z,19.96
2018-08-20T01:15:32.191Z,22.07
2018-08-20T01:21:27.151Z,24.26
2018-08-20T01:27:22.139Z,20.39
2018-08-20T01:33:17.202Z,17.21
2018-08-20T01:39:12.155Z,16.92
2018-08-20T01:45:07.188Z,19.23
2018-08-20T01:51:02.166Z,18.84
2018-08-20T01:56:57.150Z,18.07
2018-08-20T02:02:52.170Z,17.8
2018-08-20T02:08:47.153Z,18.47
2018-08-20T02:14:42.177Z,17.95
2018-08-20T02:20:37.185Z,17.77
2018-08-20T02:26:32.193Z,17.61
2018-08-20T02:32:27.181Z,16.38
2018-08-20T02:38:22.213Z,17.63
2018-08-20T02:44:17.191Z,18.89
2018-08-20T02:50:12.183Z,16.05
2018-08-20T02:56:07.196Z,19.94
2018-08-20T03:02:02.265Z,16.79
2018-08-20T03:07:57.210Z,17.14
2018-08-20T03:13:52.272Z,17.05
2018-08-20T03:19:47.223Z,21.97
2018-08-20T03:25:42.248Z,19.9
2018-08-20T03:31:37.220Z,18.12
2018-08-20T03:37:32.221Z,17.71
2018-08-20T03:43:27.235Z,23.09
2018-08-20T03:49:22.226Z,16.48
2018-08-20T03:55:17.234Z,20.19
2018-08-20T04:01:12.230Z,17.6
2018-08-20T04:07:07.223Z,20.77
2018-08-20T04:13:02.293Z,22.19
2018-08-20T04:18:57.292Z,20.07
2018-08-20T04:24:52.273Z,19.72
2018-08-20T04:30:47.443Z,17.27
2018-08-20T04:36:42.339Z,20.78
2018-08-20T04:42:37.258Z,24.76
2018-08-20T04:48:32.270Z,18.69
2018-08-20T04:54:27.302Z,18.26
2018-08-20T05:00:22.310Z,21.75
2018-08-20T05:06:17.270Z,21.94
2018-08-20T05:12:12.315Z,21.74
2018-08-20T05:18:07.295Z,19.91
2018-08-20T05:24:02.295Z,19.92
2018-08-20T05:29:57.290Z,23.02
2018-08-20T05:35:52.297Z,24.56
2018-08-20T05:41:47.339Z,24.55
2018-08-20T05:47:42.317Z,20
2018-08-20T05:53:37.317Z,19.81
2018-08-20T05:59:32.376Z,24.83
2018-08-20T06:05:27.339Z,19.37
2018-08-20T06:11:22.307Z,19.3
2018-08-20T06:17:17.311Z,20.64
2018-08-20T06:23:12.332Z,17.8
2018-08-20T06:29:07.370Z,19.76
2018-08-20T06:35:02.368Z,19.22
2018-08-20T06:40:57.327Z,21.42
2018-08-20T06:46:52.324Z,17.87
2018-08-20T06:52:47.369Z,20.09
2018-08-20T06:58:42.378Z,17.94
2018-08-20T07:04:37.353Z,22.01
2018-08-20T07:10:32.372Z,19.14
2018-08-20T07:16:27.346Z,19.61
2018-08-20T07:22:22.356Z,14.66
2018-08-20T07:28:17.370Z,16.33
2018-08-20T07:34:12.436Z,17.11
2018-08-20T07:40:07.374Z,16.24
2018-08-20T07:46:02.456Z,19.5
2018-08-20T07:51:57.373Z,19.15
2018-08-20T07:57:52.387Z,17.34
2018-08-20T08:03:47.379Z,17.03
2018-08-20T08:09:42.410Z,17.8
2018-08-20T08:15:37.386Z,21.71
2018-08-20T08:21:32.449Z,18.75
2018-08-20T08:27:27.377Z,18.68
2018-08-20T08:33:22.410Z,21.47
2018-08-20T08:39:17.399Z,14.86
2018-08-20T08:45:12.439Z,15.39
2018-08-20T08:51:07.423Z,14.61
2018-08-20T08:57:02.414Z,18.63
2018-08-20T09:02:57.427Z,13.84
2018-08-20T09:08:52.462Z,16.18
2018-08-20T09:14:47.454Z,15.95
2018-08-20T09:20:42.530Z,16.51
2018-08-20T09:26:37.447Z,16.11
2018-08-20T09:32:32.427Z,15
2018-08-20T09:38:27.456Z,12.97
2018-08-20T09:44:22.468Z,15.45
2018-08-20T09:50:17.460Z,13.27
2018-08-20T09:56:12.478Z,13.01
2018-08-20T10:02:07.499Z,12.64
2018-08-20T10:08:02.460Z,13.78
2018-08-20T10:13:57.482Z,12.01
2018-08-20T10:19:52.510Z,12.17
2018-08-20T10:25:47.488Z,12.55
2018-08-20T10:31:42.510Z,12.92
2018-08-20T10:37:37.518Z,12.11
2018-08-20T10:43:32.595Z,12.72
2018-08-20T10:49:27.496Z,11.52
2018-08-20T10:55:22.494Z,12.45
2018-08-20T11:01:17.509Z,11.37
2018-08-20T11:07:12.489Z,9.38
2018-08-20T11:13:07.547Z,9.5
2018-08-20T11:19:02.502Z,9.66
2018-08-20T11:24:57.511Z,9.72
2018-08-20T11:30:52.499Z,8.63
2018-08-20T11:36:47.525Z,11.79
2018-08-20T11:42:42.511Z,11.92
2018-08-20T11:48:37.554Z,10.09
2018-08-20T11:54:32.532Z,10.86
2018-08-20T12:00:27.550Z,9.03
2018-08-20T12:06:22.526Z,9.48
2018-08-20T12:12:17.594Z,9.88
2018-08-20T12:18:12.551Z,10.23
2018-08-20T12:24:07.574Z,7.58
2018-08-20T12:30:02.545Z,6.9
2018-08-20T12:35:57.556Z,6.06
2018-08-20T12:41:52.579Z,5.7
2018-08-20T12:47:47.559Z,5.49
2018-08-20T12:53:42.572Z,6.31
2018-08-20T12:59:37.567Z,5.56
2018-08-20T13:05:32.599Z,5.8
2018-08-20T13:11:27.634Z,5.07
2018-08-20T13:17:22.563Z,5.06
2018-08-20T13:23:17.580Z,4.67
2018-08-20T13:29:12.627Z,5.26
2018-08-20T13:35:07.629Z,5.11
2018-08-20T13:41:02.610Z,5.62
2018-08-20T13:46:57.582Z,5.09
2018-08-20T13:52:52.615Z,5.13
2018-08-20T13:58:47.622Z,5.79
2018-08-20T14:04:42.602Z,6.32
2018-08-20T14:10:37.608Z,5.41
2018-08-20T14:16:32.624Z,5.46
2018-08-20T14:22:27.634Z,5.51
2018-08-20T14:28:22.606Z,5.56
2018-08-20T14:34:17.635Z,6.13
2018-08-20T14:40:12.674Z,6.95
2018-08-20T14:46:07.625Z,6.72
2018-08-20T14:52:02.643Z,6.71
2018-08-20T14:57:57.636Z,8.79
2018-08-20T15:03:52.653Z,8.45
2018-08-20T15:09:47.661Z,8.9
2018-08-20T15:15:42.836Z,9.68
2018-08-20T15:21:37.672Z,15.55
2018-08-20T15:27:32.694Z,9.81
2018-08-20T15:33:27.729Z,9.17
2018-08-20T15:39:22.760Z,9.32
2018-08-20T15:45:17.683Z,11.39
2018-08-20T15:51:12.660Z,12.17
2018-08-20T15:57:07.708Z,13.5
2018-08-20T16:03:02.676Z,9.3
2018-08-20T16:08:57.713Z,12.27
2018-08-20T16:14:52.692Z,9.48
2018-08-20T16:20:47.693Z,14.54
2018-08-20T16:26:42.836Z,9.55
2018-08-20T16:32:37.760Z,10.85
2018-08-20T16:38:32.707Z,15.51
2018-08-20T16:44:27.730Z,13.93
2018-08-20T16:50:22.704Z,11.57
2018-08-20T16:56:17.747Z,11.08
2018-08-20T17:02:12.722Z,28.56
2018-08-20T17:08:07.718Z,15.9
2018-08-20T17:14:02.743Z,22.21
2018-08-20T17:19:57.733Z,12.81
2018-08-20T17:25:52.737Z,11.43
2018-08-20T17:31:47.784Z,12.82
2018-08-20T17:37:42.742Z,16.81
2018-08-20T17:43:37.746Z,11.19
2018-08-20T17:49:32.730Z,12.96
2018-08-20T17:55:27.737Z,13.12
2018-08-20T18:01:22.830Z,17.99
2018-08-20T18:07:17.755Z,13.5
2018-08-20T18:13:12.767Z,13.91
2018-08-20T18:19:07.786Z,16.72
2018-08-20T18:25:02.781Z,18.12
2018-08-20T18:30:57.822Z,17.33
2018-08-20T18:36:52.861Z,12.14
2018-08-20T18:42:47.774Z,10.85
2018-08-20T18:48:42.799Z,13.86
2018-08-20T18:54:37.824Z,11.66
2018-08-20T19:00:32.830Z,14.08
2018-08-20T19:06:27.822Z,19.61
2018-08-20T19:12:22.801Z,21.79
2018-08-20T19:18:17.799Z,15.02
2018-08-20T19:24:12.804Z,15.32
2018-08-20T19:30:07.795Z,13.71
2018-08-20T19:36:02.887Z,13.74
2018-08-20T19:41:57.835Z,14.41
2018-08-20T19:47:52.855Z,14.78
2018-08-20T19:53:47.835Z,14.2
2018-08-20T19:59:42.851Z,16.25
2018-08-20T20:05:37.905Z,17.67
2018-08-20T20:11:32.865Z,17.63
2018-08-20T20:17:27.851Z,23.64
2018-08-20T20:23:22.835Z,23.87
2018-08-20T20:29:17.899Z,28.42
2018-08-20T20:35:12.843Z,20.09
2018-08-20T20:41:07.880Z,27
2018-08-20T20:47:02.917Z,25.79
2018-08-20T20:52:57.858Z,23.55
2018-08-20T20:58:52.886Z,23.39
2018-08-20T21:04:47.874Z,17.23
2018-08-20T21:10:42.925Z,16.41
2018-08-20T21:16:37.892Z,32.33
2018-08-20T21:22:32.880Z,23.86
2018-08-20T21:28:27.876Z,27.67
2018-08-20T21:34:22.917Z,53.06
2018-08-20T21:40:17.903Z,36.22
2018-08-20T21:46:12.945Z,30.43
2018-08-20T21:52:07.910Z,33.41
2018-08-20T21:58:02.900Z,20.23
2018-08-20T22:03:57.925Z,21.61
2018-08-20T22:09:52.932Z,23.84
2018-08-20T22:15:47.937Z,20.71
2018-08-20T22:21:42.916Z,19.05
2018-08-20T22:27:37.918Z,16.49
2018-08-20T22:33:32.920Z,18.67
2018-08-20T22:39:27.948Z,22.74
2018-08-20T22:45:22.943Z,21
2018-08-20T22:51:17.993Z,17.45
2018-08-20T22:57:12.939Z,22.09
2018-08-20T23:03:07.949Z,23.14
2018-08-20T23:09:02.982Z,24.3
2018-08-20T23:14:57.998Z,19.63
2018-08-20T23:20:52.958Z,21.01
2018-08-20T23:26:48.060Z,22.48
2018-08-20T23:32:42.995Z,18.38
2018-08-20T23:38:37.967Z,25.43
2018-08-20T23:44:32.969Z,28.7
2018-08-20T23:50:27.968Z,17.57
2018-08-20T23:56:22.988Z,20.26
